DTTA/TUN METAR and TAF weather

Enter ICAO airport designator
Station Type Date Time Source
DTTA METAR 2021/05/14 08:00 UTC NOAA

DTTA 140800Z 18006KT 140V210 9999 FEW030 22/09 Q1013


Station Type Date Time Source
DTTA Decoded METAR 2021/05/14 08:00 UTC NOAA

Tunis-Carthage, Tunisia (DTTA) 36-50N 010-14E 4M
May 14, 2021 - 04:00 AM EDT / 2021.05.14 0800 UTC
Wind: from the S (180 degrees) at 7 MPH (6 KT) (direction variable):0
Visibility: greater than 7 mile(s):0
Sky conditions: mostly clear
Temperature: 71 F (22 C)
Dew Point: 48 F (9 C)
Relative Humidity: 43%
Pressure (altimeter): 29.91 in. Hg (1013 hPa)
ob: DTTA 140800Z 18006KT 140V210 9999 FEW030 22/09 Q1013
cycle: 8

Station Type Date Time Source
DTTA TAF 2021/05/14 06:59 UTC NOAA

TAF DTTA 140500Z 1406/1506 13005KT 9999 FEW020
BECMG 1416/1418 32015KT
TEMPO 1418/1503 34020G30KT 4000 SHRA SCT023TCU

Example: see airport list